Time;durP1;ratioP1;P1;durP2;ratioP2;P2;SDS_P1;SDS_P2;PMS_P1;PMS_P2;Temp;Humidity;BMP_temperature;BMP_pressure;BME280_temperature;BME280_humidity;BME280_pressure;Samples;Min_cycle;Max_cycle;Signal;HPM_P1;HPM_P2
2021/07/08 00:02:25;;;;;;;4.43;2.80;;;24.40;54.90;;;;;;4990463;28;20707;-64
2021/07/08 00:04:52;;;;;;;6.00;2.70;;;24.40;54.80;;;;;;4978356;28;20221;-64
2021/07/08 00:07:20;;;;;;;3.87;3.03;;;24.40;55.50;;;;;;4972736;28;20218;-64
2021/07/08 00:09:48;;;;;;;3.00;2.70;;;24.40;54.80;;;;;;4979825;28;20237;-64
2021/07/08 00:12:15;;;;;;;2.80;2.50;;;24.40;54.80;;;;;;4979930;28;20691;-64
2021/07/08 00:14:41;;;;;;;3.43;2.70;;;24.40;54.80;;;;;;4989449;28;20218;-64
2021/07/08 00:17:09;;;;;;;5.83;3.30;;;24.40;54.80;;;;;;4989398;28;20683;-64
2021/07/08 00:19:36;;;;;;;5.87;2.80;;;24.40;54.90;;;;;;4981534;28;20288;-64
2021/07/08 00:22:03;;;;;;;3.23;2.80;;;24.40;54.90;;;;;;4985379;28;20253;-64
2021/07/08 00:24:30;;;;;;;3.20;2.90;;;24.40;54.90;;;;;;4989943;28;20226;-64
2021/07/08 00:26:57;;;;;;;5.67;2.87;;;24.40;55.00;;;;;;4984890;28;20240;-64
2021/07/08 00:29:24;;;;;;;4.43;3.00;;;24.40;54.90;;;;;;4983985;28;20229;-64
2021/07/08 00:31:51;;;;;;;5.07;3.00;;;24.30;55.90;;;;;;4987402;28;20225;-63
2021/07/08 00:34:18;;;;;;;3.10;2.80;;;24.40;55.90;;;;;;4983272;28;20230;-64
2021/07/08 00:36:47;;;;;;;4.07;3.10;;;24.30;55.90;;;;;;4984978;28;20236;-64
2021/07/08 00:39:15;;;;;;;5.47;3.13;;;24.30;55.70;;;;;;4989918;28;20881;-63
2021/07/08 00:41:43;;;;;;;3.93;2.43;;;24.30;55.60;;;;;;4986444;28;20240;-64
2021/07/08 00:44:12;;;;;;;4.93;2.80;;;24.30;55.50;;;;;;4990191;28;20276;-64
2021/07/08 00:46:41;;;;;;;4.67;3.37;;;24.30;55.30;;;;;;4988820;28;20229;-64
2021/07/08 00:49:07;;;;;;;3.57;3.03;;;24.30;55.90;;;;;;4989480;28;20225;-63
2021/07/08 00:51:34;;;;;;;3.20;2.90;;;24.30;55.20;;;;;;4985459;28;20665;-63
2021/07/08 00:54:01;;;;;;;3.00;2.70;;;24.30;55.30;;;;;;4982195;28;20225;-64
2021/07/08 00:56:34;;;;;;;2.87;2.63;;;24.30;55.20;;;;;;4983834;28;20238;-64
2021/07/08 00:59:06;;;;;;;3.70;2.97;;;24.30;55.20;;;;;;4988703;28;20248;-64
2021/07/08 01:01:33;;;;;;;3.40;3.10;;;24.30;55.10;;;;;;4983055;28;20675;-63
2021/07/08 01:04:02;;;;;;;4.83;3.00;;;24.30;55.10;;;;;;4990423;28;20225;-64
2021/07/08 01:06:31;;;;;;;3.90;2.90;;;24.30;55.10;;;;;;4985099;28;20222;-64
2021/07/08 01:09:04;;;;;;;5.10;3.00;;;24.30;55.10;;;;;;4984547;28;20644;-64
2021/07/08 01:11:31;;;;;;;3.27;2.87;;;24.30;55.10;;;;;;4985321;28;20224;-64
2021/07/08 01:13:58;;;;;;;3.70;2.73;;;24.20;55.00;;;;;;4990279;28;20559;-64
2021/07/08 01:16:28;;;;;;;3.87;3.20;;;24.20;55.00;;;;;;4980214;28;20612;-64
2021/07/08 01:18:55;;;;;;;3.20;2.90;;;24.20;54.90;;;;;;5011111;28;20309;-64
2021/07/08 01:21:30;;;;;;;5.23;2.90;;;24.20;55.00;;;;;;5020790;28;20227;-64
2021/07/08 01:23:58;;;;;;;3.03;2.73;;;24.20;55.00;;;;;;5019467;28;20306;-64
2021/07/08 01:26:26;;;;;;;3.63;3.10;;;24.20;55.00;;;;;;5023403;28;20219;-64
2021/07/08 01:28:54;;;;;;;2.73;2.53;;;24.20;55.00;;;;;;5026650;28;20230;-64
2021/07/08 01:31:23;;;;;;;3.63;2.90;;;24.20;55.00;;;;;;5020754;28;20216;-64
2021/07/08 01:33:52;;;;;;;3.00;2.73;;;24.20;55.00;;;;;;5029606;28;20242;-63
2021/07/08 01:36:21;;;;;;;3.13;2.73;;;24.20;55.10;;;;;;5022944;28;20635;-64
2021/07/08 01:38:48;;;;;;;3.87;3.10;;;24.20;55.00;;;;;;5017695;28;20219;-64
2021/07/08 01:41:17;;;;;;;3.80;2.90;;;24.20;55.10;;;;;;5023997;28;20228;-64
2021/07/08 01:43:45;;;;;;;7.23;2.97;;;24.20;55.10;;;;;;5007130;28;20247;-64
2021/07/08 01:46:16;;;;;;;6.70;2.80;;;24.20;55.10;;;;;;5000029;28;20216;-64
2021/07/08 01:48:47;;;;;;;4.03;2.97;;;24.20;55.10;;;;;;5023389;28;20225;-64
2021/07/08 01:51:20;;;;;;;6.17;3.07;;;24.10;55.00;;;;;;5010038;28;20224;-64
2021/07/08 01:53:48;;;;;;;3.77;2.73;;;24.20;55.10;;;;;;5023140;28;20221;-64
2021/07/08 01:56:17;;;;;;;3.13;2.83;;;24.20;55.10;;;;;;5020077;28;20232;-63
2021/07/08 01:58:45;;;;;;;3.23;2.67;;;24.20;55.20;;;;;;5028162;28;20216;-64
2021/07/08 02:01:20;;;;;;;5.33;2.77;;;24.20;55.30;;;;;;5031425;28;20243;-64
2021/07/08 02:03:50;;;;;;;3.17;2.87;;;24.10;55.20;;;;;;5018812;28;20223;-64
2021/07/08 02:06:18;;;;;;;2.83;2.53;;;24.10;55.30;;;;;;5021254;28;20216;-64
2021/07/08 02:08:46;;;;;;;3.30;2.90;;;24.10;55.30;;;;;;5032786;28;20224;-64
2021/07/08 02:11:16;;;;;;;2.87;2.50;;;24.10;55.40;;;;;;5033999;28;20286;-64
2021/07/08 02:13:44;;;;;;;4.53;2.87;;;24.10;55.30;;;;;;5029957;28;20224;-64
2021/07/08 02:16:12;;;;;;;5.27;2.53;;;24.20;55.50;;;;;;5033072;28;20236;-64
2021/07/08 02:18:43;;;;;;;3.23;2.53;;;24.10;55.40;;;;;;5020922;28;20241;-64
2021/07/08 02:21:12;;;;;;;2.93;2.67;;;24.10;55.40;;;;;;5015679;28;20228;-64
2021/07/08 02:23:39;;;;;;;3.33;2.97;;;24.10;55.40;;;;;;5021776;28;20243;-64
2021/07/08 02:26:09;;;;;;;2.97;2.77;;;24.10;55.40;;;;;;5031969;28;20236;-64
2021/07/08 02:28:37;;;;;;;4.73;2.93;;;24.10;55.40;;;;;;5030345;28;20239;-64
2021/07/08 02:31:06;;;;;;;2.73;2.50;;;24.10;55.50;;;;;;5027578;28;20220;-64
2021/07/08 02:33:33;;;;;;;3.30;3.00;;;24.10;55.50;;;;;;5027553;28;20231;-64
2021/07/08 02:36:05;;;;;;;4.60;2.77;;;24.10;55.40;;;;;;5034279;28;20235;-64
2021/07/08 02:38:35;;;;;;;3.20;2.77;;;24.10;55.40;;;;;;4997106;28;20251;-64
2021/07/08 02:41:04;;;;;;;3.33;2.70;;;24.10;55.40;;;;;;5012924;28;20238;-64
2021/07/08 02:43:34;;;;;;;3.97;2.50;;;24.10;55.50;;;;;;5025091;28;20794;-64
2021/07/08 02:46:05;;;;;;;3.53;2.60;;;24.10;55.50;;;;;;5014281;28;20243;-64
2021/07/08 02:48:33;;;;;;;3.07;2.70;;;24.10;55.50;;;;;;5011949;28;20216;-64
2021/07/08 02:51:02;;;;;;;3.43;2.83;;;24.00;55.50;;;;;;5032294;28;20631;-64
2021/07/08 02:53:29;;;;;;;3.17;2.80;;;24.10;55.50;;;;;;5023112;28;20232;-64
2021/07/08 02:55:59;;;;;;;3.03;2.80;;;24.00;55.40;;;;;;5024590;28;20223;-64
2021/07/08 02:58:26;;;;;;;3.40;2.90;;;24.00;55.40;;;;;;5031122;28;20224;-64
2021/07/08 03:00:53;;;;;;;7.50;3.10;;;24.00;55.40;;;;;;5028504;28;20209;-64
2021/07/08 03:03:21;;;;;;;2.80;2.57;;;24.00;55.40;;;;;;5024498;28;20236;-63
2021/07/08 03:05:52;;;;;;;4.00;2.50;;;24.00;55.30;;;;;;5002264;28;20243;-64
2021/07/08 03:08:18;;;;;;;4.27;3.03;;;24.00;55.30;;;;;;5029332;28;20225;-64
2021/07/08 03:10:47;;;;;;;3.70;2.80;;;24.00;55.20;;;;;;5030802;28;20226;-64
2021/07/08 03:13:14;;;;;;;3.57;2.97;;;24.00;55.20;;;;;;5023768;28;20233;-64
2021/07/08 03:15:42;;;;;;;2.93;2.57;;;24.00;55.20;;;;;;5031883;28;20278;-64
2021/07/08 03:18:09;;;;;;;3.07;2.67;;;24.00;55.20;;;;;;5027090;28;20762;-64
2021/07/08 03:20:38;;;;;;;3.37;2.73;;;24.00;55.20;;;;;;5022372;28;20232;-64
2021/07/08 03:23:05;;;;;;;3.93;2.73;;;24.00;55.20;;;;;;5030891;28;20244;-64
2021/07/08 03:25:34;;;;;;;4.20;2.80;;;24.00;55.20;;;;;;5030959;28;20264;-64
2021/07/08 03:28:03;;;;;;;4.27;2.87;;;24.00;55.20;;;;;;5023886;28;20234;-64
2021/07/08 03:30:30;;;;;;;3.00;2.70;;;24.00;55.20;;;;;;5030410;28;20234;-64
2021/07/08 03:32:59;;;;;;;3.33;3.00;;;24.00;55.20;;;;;;5013469;28;20580;-64
2021/07/08 03:35:31;;;;;;;3.07;2.57;;;24.00;55.10;;;;;;5016783;28;20236;-64
2021/07/08 03:37:58;;;;;;;5.27;2.70;;;23.90;55.10;;;;;;5025258;28;20228;-64
2021/07/08 03:40:28;;;;;;;3.17;2.87;;;24.00;55.30;;;;;;5031827;28;20559;-64
2021/07/08 03:42:56;;;;;;;4.07;2.60;;;24.00;55.20;;;;;;5027711;28;20228;-64
2021/07/08 03:45:26;;;;;;;2.97;2.70;;;24.00;55.20;;;;;;5024372;28;20724;-64
2021/07/08 03:47:53;;;;;;;2.80;2.60;;;24.00;55.30;;;;;;5031309;28;20246;-64
2021/07/08 03:50:22;;;;;;;2.60;2.40;;;24.00;55.40;;;;;;5019844;28;20220;-64
2021/07/08 03:52:51;;;;;;;3.93;2.80;;;24.00;55.40;;;;;;5028669;28;20223;-64
2021/07/08 03:55:21;;;;;;;6.07;3.20;;;23.90;55.30;;;;;;5028294;28;20286;-64
2021/07/08 03:57:54;;;;;;;3.13;2.83;;;24.00;55.30;;;;;;5014279;28;20280;-64
2021/07/08 04:00:39;;;;;;;6.43;3.17;;;23.90;55.30;;;;;;5021346;28;20229;-64
2021/07/08 04:03:16;;;;;;;2.73;2.53;;;24.00;55.20;;;;;;5024642;28;20732;-63
2021/07/08 04:05:46;;;;;;;3.33;2.80;;;23.90;55.20;;;;;;5031745;28;20255;-64
2021/07/08 04:08:16;;;;;;;3.60;2.90;;;24.00;55.90;;;;;;5021817;28;20604;-64
2021/07/08 04:10:45;;;;;;;4.97;2.97;;;23.90;55.20;;;;;;5023884;28;20829;-64
2021/07/08 04:13:18;;;;;;;3.53;3.13;;;23.90;55.10;;;;;;5030910;28;20220;-65
2021/07/08 04:15:48;;;;;;;3.43;3.13;;;23.90;55.10;;;;;;5023167;28;20233;-63
2021/07/08 04:18:19;;;;;;;3.40;3.10;;;23.90;55.00;;;;;;5012699;28;20638;-63
2021/07/08 04:20:47;;;;;;;3.77;3.00;;;23.90;55.00;;;;;;5003405;28;20296;-63
2021/07/08 04:23:15;;;;;;;3.40;3.07;;;23.90;55.00;;;;;;5004133;28;20818;-63
2021/07/08 04:25:43;;;;;;;5.03;3.27;;;23.90;55.00;;;;;;5010087;28;20216;-63
2021/07/08 04:28:12;;;;;;;4.43;3.47;;;23.90;55.00;;;;;;4988792;28;20221;-63
2021/07/08 04:30:42;;;;;;;5.13;3.53;;;23.90;54.90;;;;;;4988119;28;20233;-63
2021/07/08 04:33:09;;;;;;;4.97;3.33;;;23.90;55.00;;;;;;5000132;28;20224;-63
2021/07/08 04:35:40;;;;;;;3.30;2.60;;;23.90;54.90;;;;;;5003353;28;20315;-63
2021/07/08 04:38:09;;;;;;;3.77;3.43;;;23.90;54.90;;;;;;5004653;28;20229;-64
2021/07/08 04:40:41;;;;;;;4.07;3.10;;;23.80;54.90;;;;;;4991812;28;20221;-63
2021/07/08 04:43:11;;;;;;;3.73;3.40;;;23.90;55.00;;;;;;4988632;28;20252;-63
2021/07/08 04:45:39;;;;;;;3.53;3.23;;;23.90;55.00;;;;;;5007315;28;20225;-64
2021/07/08 04:48:07;;;;;;;5.07;3.80;;;23.90;55.00;;;;;;4990534;28;20605;-64
2021/07/08 04:50:35;;;;;;;6.60;3.27;;;23.90;55.00;;;;;;5003854;28;20237;-64
2021/07/08 04:53:03;;;;;;;4.77;3.60;;;23.90;55.00;;;;;;5006271;28;20233;-64
2021/07/08 04:55:31;;;;;;;4.60;3.70;;;23.90;55.00;;;;;;5004121;28;20671;-63
2021/07/08 04:57:58;;;;;;;5.37;3.67;;;23.90;55.00;;;;;;4990324;28;20229;-63
2021/07/08 05:00:27;;;;;;;5.70;3.83;;;23.90;55.00;;;;;;5006895;28;20788;-63
2021/07/08 05:02:54;;;;;;;4.00;3.37;;;23.90;55.10;;;;;;5001932;28;20247;-63
2021/07/08 05:05:22;;;;;;;6.57;3.73;;;23.90;55.00;;;;;;5004532;28;20228;-63
2021/07/08 05:07:53;;;;;;;8.47;4.27;;;23.90;55.20;;;;;;5003972;28;20240;-63
2021/07/08 05:10:22;;;;;;;4.90;3.90;;;23.90;55.40;;;;;;5005547;28;20228;-63
2021/07/08 05:12:51;;;;;;;6.37;4.23;;;23.90;55.30;;;;;;5004722;28;20234;-63
2021/07/08 05:15:19;;;;;;;6.53;4.90;;;23.90;55.40;;;;;;4994121;28;20283;-64
2021/07/08 05:17:49;;;;;;;6.73;4.53;;;23.90;55.40;;;;;;5007331;28;20225;-65
2021/07/08 05:20:21;;;;;;;6.53;4.87;;;23.90;55.40;;;;;;5000334;28;20586;-63
2021/07/08 05:22:56;;;;;;;5.67;4.33;;;23.90;55.50;;;;;;4992686;28;20256;-63
2021/07/08 05:25:23;;;;;;;4.90;4.30;;;23.90;55.40;;;;;;5001794;28;20830;-63
2021/07/08 05:27:53;;;;;;;4.97;4.40;;;23.90;55.40;;;;;;5007547;28;20566;-63
2021/07/08 05:30:21;;;;;;;5.40;4.57;;;23.90;55.40;;;;;;4992038;28;20228;-62
2021/07/08 05:32:50;;;;;;;5.33;4.33;;;23.90;55.40;;;;;;5009053;28;20221;-63
2021/07/08 05:35:17;;;;;;;5.87;4.53;;;23.90;55.40;;;;;;5008722;28;20228;-63
2021/07/08 05:37:44;;;;;;;4.87;4.40;;;23.80;55.40;;;;;;5010521;28;20228;-63
2021/07/08 05:40:15;;;;;;;5.30;4.43;;;23.80;55.40;;;;;;4993554;28;20229;-63
2021/07/08 05:42:43;;;;;;;5.77;4.30;;;23.80;55.40;;;;;;5000202;28;20256;-64
2021/07/08 05:45:12;;;;;;;8.23;5.03;;;23.80;55.40;;;;;;5011037;28;20236;-63
2021/07/08 05:47:39;;;;;;;11.33;5.03;;;23.80;55.50;;;;;;5001997;28;20217;-63
2021/07/08 05:50:09;;;;;;;10.43;4.70;;;23.80;55.50;;;;;;5006000;28;20223;-65
2021/07/08 05:52:38;;;;;;;6.53;4.47;;;23.80;55.50;;;;;;5010113;28;20216;-65
2021/07/08 05:55:08;;;;;;;7.83;4.53;;;23.80;55.50;;;;;;5004981;28;20453;-65
2021/07/08 05:57:37;;;;;;;5.27;4.50;;;23.80;55.60;;;;;;5007125;28;20205;-67
2021/07/08 06:00:05;;;;;;;6.90;5.03;;;23.80;55.60;;;;;;5003107;28;20230;-65
2021/07/08 06:02:37;;;;;;;4.80;4.40;;;23.80;55.70;;;;;;5010797;28;20646;-64
2021/07/08 06:05:08;;;;;;;5.90;4.70;;;23.80;55.70;;;;;;5012715;28;20228;-65
2021/07/08 06:07:38;;;;;;;5.20;4.70;;;23.80;55.70;;;;;;4997985;28;20220;-63
2021/07/08 06:10:07;;;;;;;8.27;5.23;;;23.80;55.70;;;;;;5013822;28;20229;-63
2021/07/08 06:12:35;;;;;;;6.40;4.67;;;23.80;55.70;;;;;;5005748;28;20222;-64
2021/07/08 06:15:03;;;;;;;5.47;4.50;;;23.80;55.70;;;;;;5013012;28;20228;-64
2021/07/08 06:17:31;;;;;;;6.93;5.00;;;23.80;55.80;;;;;;5011234;28;20213;-64
2021/07/08 06:19:58;;;;;;;6.10;5.50;;;23.80;56.00;;;;;;5019122;28;20338;-64
2021/07/08 06:22:26;;;;;;;7.10;5.87;;;23.90;56.20;;;;;;5006159;28;20225;-64
2021/07/08 06:24:53;;;;;;;6.20;5.60;;;23.80;56.60;;;;;;5013622;28;20233;-65
2021/07/08 06:27:19;;;;;;;7.07;5.70;;;23.80;56.80;;;;;;4998452;28;20241;-63
2021/07/08 06:29:50;;;;;;;7.63;6.00;;;23.80;57.20;;;;;;5014618;28;20314;-64
2021/07/08 06:32:18;;;;;;;10.33;6.13;;;23.80;57.20;;;;;;5021970;28;20229;-64
2021/07/08 06:34:45;;;;;;;8.27;6.37;;;23.90;57.00;;;;;;5016822;28;20253;-64
2021/07/08 06:37:16;;;;;;;30.10;12.93;;;23.80;57.00;;;;;;5008099;28;20224;-64
2021/07/08 06:39:45;;;;;;;20.40;8.03;;;23.80;57.20;;;;;;5010302;28;20221;-64
2021/07/08 06:42:14;;;;;;;28.07;11.87;;;23.90;57.30;;;;;;5001288;28;20233;-65
2021/07/08 06:44:44;;;;;;;27.83;10.50;;;23.90;58.50;;;;;;5012725;28;20294;-65
2021/07/08 06:47:17;;;;;;;21.07;9.23;;;23.90;58.50;;;;;;5011799;28;20638;-66
2021/07/08 06:49:44;;;;;;;15.13;7.47;;;23.90;58.70;;;;;;5012482;28;20654;-66
2021/07/08 06:52:14;;;;;;;10.37;6.83;;;23.90;58.60;;;;;;5006810;28;20229;-64
2021/07/08 06:54:42;;;;;;;10.57;7.50;;;23.90;58.50;;;;;;5000825;28;20232;-64
2021/07/08 06:57:10;;;;;;;11.40;6.53;;;23.90;58.10;;;;;;4995261;28;20232;-64
2021/07/08 06:59:36;;;;;;;7.30;5.97;;;23.90;58.00;;;;;;5010319;28;20236;-64
2021/07/08 07:02:05;;;;;;;7.10;6.40;;;23.90;58.20;;;;;;4997372;28;20232;-66
2021/07/08 07:04:35;;;;;;;6.53;5.70;;;23.90;58.30;;;;;;5007443;28;20686;-67
2021/07/08 07:07:03;;;;;;;8.53;6.53;;;23.90;58.30;;;;;;5001516;28;20248;-64
2021/07/08 07:09:34;;;;;;;7.40;6.30;;;23.90;58.40;;;;;;5012379;28;20208;-65
2021/07/08 07:12:02;;;;;;;10.70;6.13;;;23.90;58.40;;;;;;5005886;28;20811;-68
2021/07/08 07:14:28;;;;;;;5.80;5.00;;;23.90;58.80;;;;;;5012012;28;20458;-69
2021/07/08 07:16:57;;;;;;;7.97;5.50;;;24.00;58.00;;;;;;4998270;28;20217;-68
2021/07/08 07:19:24;;;;;;;6.63;5.30;;;24.10;59.00;;;;;;5002695;28;20344;-67
2021/07/08 07:21:54;;;;;;;5.90;5.37;;;24.20;58.80;;;;;;5010437;28;20229;-67
2021/07/08 07:24:23;;;;;;;7.80;5.07;;;24.30;58.60;;;;;;5010676;28;20300;-68
2021/07/08 07:26:53;;;;;;;5.07;4.57;;;24.30;58.40;;;;;;5005576;28;20217;-66
2021/07/08 07:29:21;;;;;;;5.43;4.93;;;24.50;58.00;;;;;;5012892;28;20225;-67
2021/07/08 07:31:49;;;;;;;5.87;5.20;;;24.50;57.70;;;;;;5011159;28;20213;-66
2021/07/08 07:34:20;;;;;;;7.30;5.20;;;24.60;57.60;;;;;;5008473;28;20233;-67
2021/07/08 07:36:49;;;;;;;7.60;5.10;;;24.70;57.30;;;;;;5007024;28;20232;-67
2021/07/08 07:39:16;;;;;;;5.60;4.80;;;24.70;57.30;;;;;;5010119;28;20323;-68
2021/07/08 07:41:43;;;;;;;6.57;5.50;;;24.90;56.90;;;;;;5007354;28;20233;-68
2021/07/08 07:44:12;;;;;;;6.33;5.53;;;24.90;56.70;;;;;;5009549;28;20244;-67
2021/07/08 07:46:40;;;;;;;5.40;4.90;;;25.00;56.60;;;;;;5002485;28;20803;-67
2021/07/08 07:49:11;;;;;;;6.70;6.00;;;25.10;56.40;;;;;;5011189;28;20237;-66
2021/07/08 07:51:38;;;;;;;6.97;6.23;;;25.20;56.40;;;;;;5009330;28;20678;-68
2021/07/08 07:54:05;;;;;;;8.30;5.40;;;25.20;56.10;;;;;;5010013;28;20249;-66
2021/07/08 07:56:32;;;;;;;9.90;5.57;;;25.20;56.10;;;;;;5010942;28;20688;-67
2021/07/08 07:58:59;;;;;;;6.57;5.87;;;25.40;56.20;;;;;;5010645;28;20598;-67
2021/07/08 08:01:28;;;;;;;7.47;5.87;;;25.40;56.00;;;;;;5009943;28;20777;-67
2021/07/08 08:03:57;;;;;;;6.63;6.00;;;25.40;55.80;;;;;;5010875;28;20235;-65
2021/07/08 08:09:09;;;;;;;6.63;5.93;;;25.50;55.20;;;;;;5000045;28;20212;-65
2021/07/08 08:11:42;;;;;;;8.50;7.70;;;25.60;55.20;;;;;;5001425;28;21121;-66
2021/07/08 08:14:09;;;;;;;8.07;6.57;;;25.60;55.50;;;;;;5004565;28;20225;-68
2021/07/08 08:16:38;;;;;;;7.40;6.27;;;25.70;55.30;;;;;;5009396;28;20229;-67
2021/07/08 08:19:07;;;;;;;6.90;6.30;;;25.70;55.20;;;;;;5014959;28;20594;-66
2021/07/08 08:21:34;;;;;;;6.80;6.10;;;25.70;55.30;;;;;;5007310;28;20741;-66
2021/07/08 08:24:02;;;;;;;11.63;6.17;;;25.80;55.20;;;;;;5011865;28;20320;-65
2021/07/08 08:26:29;;;;;;;11.07;6.20;;;25.80;55.20;;;;;;5005208;28;20227;-65
2021/07/08 08:28:59;;;;;;;6.57;5.93;;;25.90;55.20;;;;;;5012298;28;20618;-66
2021/07/08 08:31:28;;;;;;;6.63;6.03;;;25.90;55.30;;;;;;4997102;28;20223;-67
2021/07/08 08:33:56;;;;;;;6.40;5.80;;;26.00;55.10;;;;;;4995806;28;20236;-68
2021/07/08 08:36:23;;;;;;;7.33;5.30;;;26.00;55.10;;;;;;5002982;28;20226;-67
2021/07/08 08:38:54;;;;;;;8.80;5.90;;;26.10;55.00;;;;;;5021043;28;20888;-67
2021/07/08 08:41:22;;;;;;;7.33;6.47;;;26.10;55.00;;;;;;5005007;28;20253;-66
2021/07/08 08:43:50;;;;;;;5.53;5.03;;;26.10;54.90;;;;;;5008127;28;20244;-66
2021/07/08 08:46:18;;;;;;;6.13;5.53;;;26.10;54.80;;;;;;5010166;28;20259;-67
2021/07/08 08:48:45;;;;;;;6.13;5.53;;;26.20;54.80;;;;;;5007958;28;20233;-66
2021/07/08 08:51:13;;;;;;;7.50;6.90;;;26.20;54.80;;;;;;5007377;28;20240;-67
2021/07/08 08:53:40;;;;;;;6.47;5.87;;;26.30;54.80;;;;;;5009180;28;20216;-67
2021/07/08 08:56:09;;;;;;;9.83;8.93;;;26.30;54.70;;;;;;5013857;28;20232;-67
2021/07/08 08:58:39;;;;;;;9.00;8.20;;;26.30;54.10;;;;;;5009632;28;20267;-67
2021/07/08 09:01:07;;;;;;;8.17;7.37;;;26.30;54.10;;;;;;5004134;28;20235;-65
2021/07/08 09:03:34;;;;;;;9.77;8.37;;;26.30;54.10;;;;;;5013780;28;20239;-65
2021/07/08 09:06:14;;;;;;;11.67;7.53;;;26.30;55.00;;;;;;5014602;28;20220;-65
2021/07/08 09:08:49;;;;;;;8.03;7.33;;;26.40;55.10;;;;;;5019790;28;20564;-64
2021/07/08 09:11:23;;;;;;;10.97;7.20;;;26.40;55.10;;;;;;5009254;28;20208;-65
2021/07/08 09:13:56;;;;;;;9.70;7.87;;;26.40;55.10;;;;;;5016970;28;20209;-66
2021/07/08 09:16:39;;;;;;;7.93;6.73;;;26.40;54.90;;;;;;5018674;28;20219;-64
2021/07/08 09:19:18;;;;;;;8.90;7.27;;;26.50;54.80;;;;;;5006502;28;20314;-64
2021/07/08 09:21:52;;;;;;;8.33;6.97;;;26.60;55.10;;;;;;4990727;28;20263;-65
2021/07/08 09:24:20;;;;;;;7.77;7.07;;;26.50;54.80;;;;;;5013786;28;20247;-64
2021/07/08 09:26:55;;;;;;;9.27;6.57;;;26.60;54.60;;;;;;5007836;28;20225;-64
2021/07/08 09:29:29;;;;;;;8.83;8.03;;;26.60;54.60;;;;;;5013590;28;20216;-66
2021/07/08 09:32:34;;;;;;;7.90;7.10;;;26.70;54.60;;;;;;5008488;28;20698;-65
2021/07/08 09:35:04;;;;;;;9.20;8.30;;;26.70;55.10;;;;;;4998372;28;20564;-66
2021/07/08 09:37:33;;;;;;;9.10;8.20;;;26.70;55.20;;;;;;5011488;28;20259;-66
2021/07/08 09:40:03;;;;;;;10.70;7.37;;;26.70;55.40;;;;;;5010710;28;20221;-67
2021/07/08 09:42:38;;;;;;;8.97;8.10;;;26.80;56.00;;;;;;5002472;28;20213;-67
2021/07/08 09:45:08;;;;;;;8.87;7.43;;;26.80;56.20;;;;;;5008688;28;20241;-68
2021/07/08 09:47:37;;;;;;;6.60;6.00;;;26.80;56.60;;;;;;5022116;28;20275;-67
2021/07/08 09:50:06;;;;;;;7.83;7.13;;;26.90;56.60;;;;;;4997480;28;20230;-68
2021/07/08 09:52:33;;;;;;;9.57;8.67;;;26.90;56.40;;;;;;5006026;28;20643;-67
2021/07/08 09:55:16;;;;;;;8.07;7.30;;;26.90;55.70;;;;;;5013412;28;20224;-67
2021/07/08 09:57:48;;;;;;;7.53;6.87;;;27.00;56.20;;;;;;5010692;28;20259;-64
2021/07/08 10:00:22;;;;;;;8.33;6.30;;;27.00;56.70;;;;;;5012010;28;20240;-66
2021/07/08 10:02:55;;;;;;;9.23;8.33;;;27.00;57.10;;;;;;5008318;28;20280;-65
2021/07/08 10:05:25;;;;;;;9.50;8.03;;;27.10;56.10;;;;;;4993273;28;20315;-63
2021/07/08 10:07:54;;;;;;;8.33;7.63;;;27.00;56.50;;;;;;5013073;28;20689;-63
2021/07/08 10:10:24;;;;;;;7.77;7.13;;;27.00;56.50;;;;;;5006460;28;20217;-64
2021/07/08 10:12:53;;;;;;;8.03;7.27;;;27.00;56.70;;;;;;5008313;28;20241;-63
2021/07/08 10:15:20;;;;;;;8.67;7.77;;;26.90;56.20;;;;;;4998956;28;20663;-63
2021/07/08 10:17:51;;;;;;;9.10;8.00;;;26.90;56.40;;;;;;5000894;28;20240;-64
2021/07/08 10:20:19;;;;;;;10.40;8.17;;;26.90;55.70;;;;;;5009664;28;20233;-64
2021/07/08 10:22:48;;;;;;;7.70;6.90;;;26.90;55.30;;;;;;5017109;28;20221;-64
2021/07/08 10:25:19;;;;;;;8.37;6.97;;;26.90;56.30;;;;;;5013843;28;20236;-63
2021/07/08 10:27:48;;;;;;;7.40;6.70;;;26.90;57.10;;;;;;5014322;28;20660;-63
2021/07/08 10:30:20;;;;;;;11.20;8.40;;;26.80;56.50;;;;;;5014156;28;20635;-64
2021/07/08 10:32:58;;;;;;;12.90;9.93;;;26.80;55.70;;;;;;5014782;28;20646;-64
2021/07/08 10:35:45;;;;;;;9.67;8.60;;;26.80;54.80;;;;;;5009432;28;20220;-64
2021/07/08 10:38:27;;;;;;;11.10;8.17;;;26.70;55.20;;;;;;5008448;28;20228;-64
2021/07/08 10:40:56;;;;;;;9.10;8.20;;;26.70;55.60;;;;;;5011328;28;20233;-64
2021/07/08 10:43:40;;;;;;;9.53;8.63;;;26.70;55.80;;;;;;5004364;28;20225;-64
2021/07/08 10:46:36;;;;;;;8.57;7.60;;;26.70;55.60;;;;;;5005601;28;20348;-65
2021/07/08 10:49:13;;;;;;;8.27;6.23;;;26.70;56.00;;;;;;4986363;28;20224;-65
2021/07/08 10:51:43;;;;;;;8.23;6.30;;;26.80;57.00;;;;;;5001902;28;20220;-65
2021/07/08 10:54:29;;;;;;;7.93;7.03;;;26.80;57.30;;;;;;5009712;28;20229;-66
2021/07/08 10:57:00;;;;;;;9.57;8.60;;;26.70;56.20;;;;;;5010511;28;20237;-64
2021/07/08 10:59:38;;;;;;;8.63;7.73;;;26.80;55.50;;;;;;5008007;28;20693;-65
2021/07/08 11:02:05;;;;;;;7.67;6.97;;;26.70;56.10;;;;;;5008875;28;20237;-64
2021/07/08 11:04:46;;;;;;;7.10;6.40;;;26.80;56.30;;;;;;5003477;28;20237;-66
2021/07/08 11:07:16;;;;;;;6.30;5.70;;;26.90;56.10;;;;;;5005969;28;20233;-67
2021/07/08 11:10:04;;;;;;;7.03;5.50;;;26.90;56.00;;;;;;5008468;28;20221;-67
2021/07/08 11:12:33;;;;;;;6.23;5.53;;;27.00;56.40;;;;;;5010962;28;20311;-65
2021/07/08 11:15:01;;;;;;;5.03;4.63;;;27.10;56.10;;;;;;5008019;28;20291;-67
2021/07/08 11:17:41;;;;;;;6.87;5.00;;;27.10;55.50;;;;;;5006307;28;20256;-66
2021/07/08 11:20:31;;;;;;;5.13;4.60;;;27.20;55.30;;;;;;5009911;28;20307;-66
2021/07/08 11:23:37;;;;;;;7.17;5.90;;;27.20;55.40;;;;;;5008379;28;20229;-68
2021/07/08 11:26:05;;;;;;;5.60;5.10;;;27.30;54.40;;;;;;5004238;28;20256;-64
2021/07/08 11:28:33;;;;;;;5.80;4.87;;;27.30;54.10;;;;;;5009859;28;20228;-65
2021/07/08 11:31:04;;;;;;;8.20;4.63;;;27.40;54.60;;;;;;5010996;28;20232;-68
2021/07/08 11:33:37;;;;;;;4.93;4.00;;;27.50;54.40;;;;;;5013782;28;20555;-68
2021/07/08 11:36:21;;;;;;;4.30;3.80;;;27.40;54.10;;;;;;5011781;28;20240;-67
2021/07/08 11:38:49;;;;;;;4.83;4.33;;;27.50;53.80;;;;;;4994759;28;20232;-67
2021/07/08 11:41:22;;;;;;;9.23;4.93;;;27.50;52.60;;;;;;5009370;28;20235;-65
2021/07/08 11:43:53;;;;;;;6.73;5.60;;;27.50;52.80;;;;;;5006136;28;20220;-66
2021/07/08 11:46:22;;;;;;;5.30;4.70;;;27.50;51.90;;;;;;4997354;28;20256;-66
2021/07/08 11:48:51;;;;;;;5.93;4.00;;;27.60;51.90;;;;;;5010713;28;20243;-66
2021/07/08 11:51:29;;;;;;;5.70;3.70;;;27.60;52.90;;;;;;5013695;28;20213;-67
2021/07/08 11:53:56;;;;;;;6.20;3.63;;;27.60;54.10;;;;;;5012180;28;20220;-67
2021/07/08 11:56:25;;;;;;;4.97;3.90;;;27.60;54.30;;;;;;5014837;28;20911;-66
2021/07/08 11:58:52;;;;;;;4.33;3.90;;;27.70;53.90;;;;;;5013393;28;20646;-66
2021/07/08 12:01:20;;;;;;;3.93;3.63;;;27.70;53.60;;;;;;4997346;28;20229;-67
2021/07/08 12:03:51;;;;;;;5.63;4.60;;;27.70;54.30;;;;;;5017488;28;20213;-67
2021/07/08 12:06:30;;;;;;;4.47;3.77;;;27.80;52.60;;;;;;4996807;28;20263;-66
2021/07/08 12:09:05;;;;;;;5.57;5.07;;;27.80;53.30;;;;;;5008328;28;20799;-65
2021/07/08 12:11:41;;;;;;;7.13;5.70;;;27.80;52.10;;;;;;5009863;28;20221;-66
2021/07/08 12:14:09;;;;;;;5.60;4.77;;;27.80;51.30;;;;;;5002338;28;20228;-66
2021/07/08 12:16:45;;;;;;;5.77;5.20;;;27.90;51.50;;;;;;5016359;28;20225;-66
2021/07/08 12:19:25;;;;;;;7.03;5.10;;;27.80;51.50;;;;;;5010335;28;20273;-65
2021/07/08 12:22:04;;;;;;;5.30;4.80;;;27.90;51.30;;;;;;5010561;28;20224;-68
2021/07/08 12:24:34;;;;;;;6.77;4.77;;;27.90;50.50;;;;;;5006198;28;20240;-64
2021/07/08 12:27:07;;;;;;;4.40;4.00;;;27.80;51.10;;;;;;5010625;28;20807;-67
2021/07/08 12:29:38;;;;;;;6.17;4.97;;;27.90;51.10;;;;;;5004059;28;20212;-66
2021/07/08 12:32:09;;;;;;;4.97;4.47;;;27.90;51.10;;;;;;5007068;28;20228;-65
2021/07/08 12:34:47;;;;;;;5.10;4.40;;;27.90;51.40;;;;;;5008973;28;20922;-68
2021/07/08 12:37:25;;;;;;;4.13;3.73;;;27.90;51.10;;;;;;5004678;28;20231;-65
2021/07/08 12:40:14;;;;;;;4.10;3.60;;;27.90;53.00;;;;;;5008015;28;20240;-65
2021/07/08 12:42:47;;;;;;;3.80;3.40;;;27.90;54.20;;;;;;5002935;28;20696;-64
2021/07/08 12:45:23;;;;;;;4.00;3.07;;;27.90;54.90;;;;;;5005567;28;20244;-63
2021/07/08 12:47:53;;;;;;;4.07;3.00;;;27.90;55.30;;;;;;5005608;28;20238;-63
2021/07/08 12:50:23;;;;;;;3.60;3.10;;;27.90;56.30;;;;;;5007553;28;20300;-65
2021/07/08 12:52:51;;;;;;;3.00;2.63;;;27.90;55.90;;;;;;5005292;28;20590;-65
2021/07/08 12:55:41;;;;;;;2.93;2.70;;;27.90;56.20;;;;;;5005260;28;20219;-62
2021/07/08 12:58:17;;;;;;;3.70;3.30;;;27.90;56.40;;;;;;5006995;28;20605;-63
2021/07/08 13:00:45;;;;;;;4.03;2.87;;;27.80;56.60;;;;;;5006838;28;20606;-66
2021/07/08 13:03:24;;;;;;;2.80;2.60;;;27.80;56.70;;;;;;5006854;28;20252;-66
2021/07/08 13:06:05;;;;;;;3.10;2.80;;;27.90;57.00;;;;;;5004871;28;20588;-64